Time;durP1;ratioP1;P1;durP2;ratioP2;P2;SDS_P1;SDS_P2;PMS_P1;PMS_P2;Temp;Humidity;BMP_temperature;BMP_pressure;BME280_temperature;BME280_humidity;BME280_pressure;Samples;Min_cycle;Max_cycle;Signal;HPM_P1;HPM_P2
2022/12/09 00:00:31;;;;;;;3.53;1.08;;;;;;;18.24;39.21;100580.22;16120007;19;129908;-44
2022/12/09 00:05:53;;;;;;;2.92;0.95;;;;;;;18.19;39.08;100574.63;16119762;19;130462;-44
2022/12/09 00:11:16;;;;;;;2.35;0.70;;;;;;;18.14;39.17;100570.69;16120444;19;129646;-42
2022/12/09 00:16:38;;;;;;;3.10;0.85;;;;;;;18.09;39.28;100576.13;16117405;19;130716;-41
2022/12/09 00:22:00;;;;;;;3.38;0.70;;;;;;;18.07;39.09;100569.16;16117522;19;129922;-41
2022/12/09 00:27:22;;;;;;;1.85;0.70;;;;;;;18.04;39.13;100570.50;16114866;19;130313;-42
2022/12/09 00:32:44;;;;;;;2.90;0.90;;;;;;;18.02;39.30;100577.41;16118212;19;129602;-41
2022/12/09 00:38:06;;;;;;;1.17;0.50;;;;;;;17.96;39.07;100571.75;16119212;19;129738;-42
2022/12/09 00:43:28;;;;;;;2.05;0.80;;;;;;;17.93;39.50;100576.97;16117920;19;131290;-44
2022/12/09 00:48:50;;;;;;;3.58;0.60;;;;;;;17.90;39.56;100569.16;16120629;19;130630;-42
2022/12/09 00:54:12;;;;;;;1.55;0.65;;;;;;;17.85;39.06;100573.50;16117193;19;130154;-43
2022/12/09 00:59:34;;;;;;;2.92;0.50;;;;;;;17.83;39.50;100575.69;16117749;19;129206;-45
2022/12/09 01:04:56;;;;;;;1.83;0.50;;;;;;;17.80;39.44;100573.44;16117000;19;129711;-41
2022/12/09 01:10:18;;;;;;;1.85;0.50;;;;;;;17.78;39.33;100567.31;16115757;19;129534;-42
2022/12/09 01:15:39;;;;;;;1.13;0.60;;;;;;;17.76;39.47;100563.94;16113952;19;129496;-42
2022/12/09 01:21:02;;;;;;;2.92;0.60;;;;;;;17.74;39.04;100565.28;16111958;19;131342;-44
2022/12/09 01:26:24;;;;;;;0.82;0.52;;;;;;;17.71;39.50;100563.88;16115273;19;130987;-51
2022/12/09 01:31:46;;;;;;;1.13;0.50;;;;;;;17.69;39.31;100574.34;16123303;19;131256;-50
2022/12/09 01:37:08;;;;;;;2.13;0.60;;;;;;;17.66;39.08;100575.66;16130537;19;130023;-49
2022/12/09 01:42:32;;;;;;;2.22;0.50;;;;;;;17.65;39.51;100573.16;16134506;19;129528;-49
2022/12/09 01:48:28;;;;;;;1.77;0.63;;;;;;;17.62;39.13;100577.25;16133841;19;129621;-49
2022/12/09 01:53:50;;;;;;;1.48;0.60;;;;;;;17.58;39.52;100575.22;16130811;19;129494;-47
2022/12/09 01:59:15;;;;;;;1.10;0.50;;;;;;;17.58;39.50;100575.22;16129493;19;129232;-51
2022/12/09 02:04:40;;;;;;;0.57;0.50;;;;;;;17.56;39.19;100575.47;16132765;19;129842;-50
2022/12/09 02:10:12;;;;;;;2.05;0.50;;;;;;;17.53;39.25;100582.31;16133457;19;130006;-50
2022/12/09 02:15:44;;;;;;;2.30;0.77;;;;;;;17.52;39.26;100582.56;16133276;19;135289;-45
2022/12/09 02:21:32;;;;;;;2.75;0.73;;;;;;;17.51;39.36;100584.47;16129146;19;130773;-47
2022/12/09 02:27:16;;;;;;;1.30;0.50;;;;;;;17.48;39.04;100579.44;16130480;19;129113;-45
2022/12/09 02:33:03;;;;;;;0.60;0.60;;;;;;;17.46;39.25;100576.09;16132500;19;130700;-43
2022/12/09 02:38:30;;;;;;;2.30;0.60;;;;;;;17.42;39.07;100569.38;16130145;19;130119;-41
2022/12/09 02:44:01;;;;;;;0.50;0.50;;;;;;;17.42;39.12;100558.31;16129776;19;129268;-41
2022/12/09 02:49:25;;;;;;;1.27;0.50;;;;;;;17.40;39.23;100568.78;16129062;19;129715;-43
2022/12/09 02:54:48;;;;;;;2.13;0.90;;;;;;;17.37;39.30;100572.03;16130943;19;129371;-42
2022/12/09 03:00:14;;;;;;;1.75;1.00;;;;;;;17.34;39.04;100567.84;16128719;19;129899;-44
2022/12/09 03:05:47;;;;;;;;;;;;;;;17.30;39.11;100563.06;16128697;19;131370;-43
2022/12/09 03:11:14;;;;;;;3.40;1.02;;;;;;;17.32;39.23;100558.13;16128052;19;130288;-43
2022/12/09 03:16:48;;;;;;;2.80;0.68;;;;;;;17.31;39.14;100562.78;16125938;19;129175;-42
2022/12/09 03:22:18;;;;;;;0.65;0.63;;;;;;;17.32;39.30;100560.88;16124275;19;129710;-46
2022/12/09 03:27:51;;;;;;;1.05;0.70;;;;;;;17.30;39.42;100552.00;16125576;19;129510;-44
2022/12/09 03:33:16;;;;;;;1.27;0.77;;;;;;;17.28;38.96;100548.63;16124332;19;129406;-44
2022/12/09 03:38:42;;;;;;;1.27;0.80;;;;;;;17.26;39.16;100550.78;16125396;19;129562;-42
2022/12/09 03:44:12;;;;;;;0.77;0.60;;;;;;;17.26;38.96;100556.31;16125540;19;130345;-43
2022/12/09 03:49:37;;;;;;;1.02;0.70;;;;;;;17.23;39.08;100554.91;16124757;19;130562;-46
2022/12/09 03:55:07;;;;;;;2.33;0.90;;;;;;;17.23;38.81;100554.91;16123901;19;132615;-43
2022/12/09 04:00:30;;;;;;;1.17;0.80;;;;;;;17.22;39.24;100553.22;16126860;19;130173;-41
2022/12/09 04:05:51;;;;;;;1.30;0.70;;;;;;;17.18;38.95;100541.81;16124267;19;129607;-44
2022/12/09 04:11:13;;;;;;;1.02;0.73;;;;;;;17.18;39.15;100533.53;16123425;19;129287;-42
2022/12/09 04:16:35;;;;;;;1.60;0.90;;;;;;;17.17;39.09;100534.59;16121505;19;129427;-41
2022/12/09 04:21:57;;;;;;;3.17;0.90;;;;;;;17.15;39.25;100542.28;16121937;19;129572;-42
2022/12/09 04:27:19;;;;;;;1.15;0.77;;;;;;;17.14;39.28;100543.38;16123115;19;132250;-41
2022/12/09 04:32:41;;;;;;;1.40;0.75;;;;;;;17.14;38.92;100537.03;16122558;19;129230;-42
2022/12/09 04:38:03;;;;;;;1.20;0.80;;;;;;;17.13;39.20;100538.94;16121450;19;129599;-42
2022/12/09 04:43:25;;;;;;;2.53;1.17;;;;;;;17.11;38.86;100532.81;16120427;19;129892;-42
2022/12/09 04:48:47;;;;;;;2.60;1.40;;;;;;;17.10;38.81;100533.06;16122530;19;130203;-41
2022/12/09 04:54:13;;;;;;;1.50;1.10;;;;;;;17.08;38.74;100530.56;16120252;19;130587;-42
2022/12/09 04:59:35;;;;;;;2.92;1.80;;;;;;;17.06;38.96;100530.78;16121497;19;130335;-42
2022/12/09 05:05:00;;;;;;;2.42;1.48;;;;;;;17.05;38.85;100537.41;16124222;19;129954;-44
2022/12/09 05:10:22;;;;;;;2.25;1.60;;;;;;;17.03;38.72;100531.31;16134092;19;129970;-42
2022/12/09 05:15:44;;;;;;;2.70;1.60;;;;;;;17.02;38.61;100526.84;16133930;19;129353;-43
2022/12/09 05:21:08;;;;;;;2.67;1.48;;;;;;;17.02;38.62;100537.06;16131857;19;129718;-43
2022/12/09 05:26:30;;;;;;;3.45;1.52;;;;;;;16.99;38.77;100524.56;16134677;19;130233;-42
2022/12/09 05:31:52;;;;;;;3.72;2.10;;;;;;;16.98;38.76;100535.88;16131854;19;129045;-45
2022/12/09 05:37:15;;;;;;;3.35;1.95;;;;;;;16.96;38.53;100532.53;16131919;19;129670;-42
2022/12/09 05:42:37;;;;;;;2.97;1.80;;;;;;;16.95;38.62;100528.06;16131759;19;129559;-43
2022/12/09 05:48:02;;;;;;;3.13;1.95;;;;;;;16.93;38.58;100531.91;16129648;19;129551;-44
2022/12/09 05:53:25;;;;;;;3.35;1.75;;;;;;;16.94;38.62;100524.47;16130902;19;130458;-42
2022/12/09 05:58:47;;;;;;;2.90;1.60;;;;;;;16.92;38.74;100530.25;16130514;19;130055;-41
2022/12/09 06:04:09;;;;;;;1.90;1.15;;;;;;;16.91;38.51;100528.56;16129407;19;130522;-45
2022/12/09 06:09:32;;;;;;;2.13;1.50;;;;;;;17.06;38.77;100521.66;16130405;19;129502;-42
2022/12/09 06:14:54;;;;;;;2.33;1.30;;;;;;;17.51;38.49;100517.28;16127614;19;129497;-42
2022/12/09 06:20:17;;;;;;;2.72;1.20;;;;;;;18.13;37.64;100505.31;16124391;19;129365;-42
2022/12/09 06:25:44;;;;;;;1.42;1.00;;;;;;;18.76;36.99;100496.81;16129412;19;131840;-42
2022/12/09 06:31:06;;;;;;;2.22;1.05;;;;;;;19.32;36.56;100509.66;16126377;19;130231;-43
2022/12/09 06:36:30;;;;;;;0.90;0.77;;;;;;;19.75;35.83;100503.41;16123611;19;130113;-43
2022/12/09 06:41:52;;;;;;;1.65;1.30;;;;;;;19.93;35.63;100502.19;16128191;19;129575;-42
2022/12/09 06:47:13;;;;;;;1.50;1.23;;;;;;;19.93;35.42;100511.38;16124885;19;129482;-43
2022/12/09 06:52:36;;;;;;;1.50;1.13;;;;;;;19.83;35.37;100522.34;16124860;19;129486;-43
2022/12/09 06:57:58;;;;;;;1.55;1.20;;;;;;;19.68;35.46;100515.59;16123328;19;129335;-44
2022/12/09 07:03:20;;;;;;;1.13;1.00;;;;;;;19.50;35.81;100521.50;16125938;19;130266;-45
2022/12/09 07:08:42;;;;;;;2.38;1.30;;;;;;;19.33;36.00;100522.44;16126249;19;129229;-43
2022/12/09 07:14:05;;;;;;;2.58;1.83;;;;;;;19.15;36.33;100522.78;16123623;19;130796;-45
2022/12/09 07:19:28;;;;;;;2.35;1.30;;;;;;;18.99;36.50;100525.34;16124368;19;129170;-43
2022/12/09 07:24:50;;;;;;;1.85;1.40;;;;;;;18.82;36.62;100530.97;16126385;19;129872;-45
2022/12/09 07:30:12;;;;;;;1.85;1.35;;;;;;;18.69;36.33;100529.44;16120121;19;130033;-43
2022/12/09 07:35:34;;;;;;;1.50;1.05;;;;;;;18.61;36.80;100540.94;16125684;19;130141;-41
2022/12/09 07:41:04;;;;;;;1.45;1.20;;;;;;;18.83;36.42;100537.38;16125957;19;129824;-42
2022/12/09 07:46:26;;;;;;;1.35;0.93;;;;;;;19.21;36.09;100535.63;16120975;19;129223;-42
2022/12/09 07:51:49;;;;;;;2.08;0.93;;;;;;;19.66;35.40;100539.13;16123686;19;130133;-42
2022/12/09 07:57:11;;;;;;;0.95;0.88;;;;;;;20.13;35.47;100545.97;16121005;19;129461;-43
2022/12/09 08:02:33;;;;;;;2.28;1.10;;;;;;;20.53;34.57;100541.81;16122611;19;129426;-44
2022/12/09 08:07:55;;;;;;;1.25;0.60;;;;;;;20.87;34.75;100538.66;16121324;19;129462;-43
2022/12/09 08:13:18;;;;;;;0.80;0.70;;;;;;;21.08;34.42;100533.19;16122689;19;129337;-43
2022/12/09 08:18:41;;;;;;;1.55;0.80;;;;;;;21.12;34.36;100537.09;16124016;19;129721;-43
2022/12/09 08:24:04;;;;;;;2.05;0.90;;;;;;;21.03;34.26;100533.19;16119863;19;129898;-42
2022/12/09 08:29:26;;;;;;;0.73;0.63;;;;;;;20.88;34.33;100536.72;16117195;19;129626;-43
2022/12/09 08:34:48;;;;;;;1.55;0.80;;;;;;;20.70;34.23;100546.31;16117250;19;130496;-42
2022/12/09 08:40:11;;;;;;;2.78;1.00;;;;;;;20.49;34.83;100545.41;16123161;19;133040;-47
2022/12/09 08:45:39;;;;;;;0.98;0.82;;;;;;;20.28;35.09;100539.69;16133830;19;129594;-43
2022/12/09 08:51:01;;;;;;;2.15;0.98;;;;;;;20.10;34.65;100546.50;16134987;19;129289;-43
2022/12/09 08:56:24;;;;;;;1.33;0.70;;;;;;;19.90;35.33;100538.78;16133319;19;129396;-43
2022/12/09 09:01:46;;;;;;;1.95;0.80;;;;;;;19.73;35.57;100545.34;16134188;19;129954;-43
2022/12/09 09:07:09;;;;;;;1.90;0.80;;;;;;;19.54;35.89;100536.53;16131518;19;130236;-42
2022/12/09 09:12:32;;;;;;;1.42;1.02;;;;;;;19.38;35.83;100541.91;16133097;19;129362;-43
2022/12/09 09:18:02;;;;;;;1.65;0.70;;;;;;;19.24;35.87;100548.16;16133273;19;130670;-45
2022/12/09 09:23:25;;;;;;;2.45;0.85;;;;;;;19.12;36.22;100551.00;16131856;19;129118;-42
2022/12/09 09:28:48;;;;;;;4.32;1.02;;;;;;;19.03;36.61;100553.41;16133105;19;129324;-42
2022/12/09 09:34:10;;;;;;;3.35;1.05;;;;;;;18.93;36.23;100556.91;16132497;19;130630;-42
2022/12/09 09:39:32;;;;;;;1.80;0.73;;;;;;;18.86;36.73;100559.84;16134430;19;129536;-42
2022/12/09 09:44:54;;;;;;;2.90;0.77;;;;;;;18.99;36.36;100561.41;16132083;19;129843;-42
2022/12/09 09:50:36;;;;;;;5.57;0.90;;;;;;;19.46;36.15;100559.19;16129128;19;130393;-41
2022/12/09 09:56:45;;;;;;;2.40;0.60;;;;;;;19.97;35.87;100562.47;16130451;19;129521;-43
2022/12/09 10:02:10;;;;;;;4.65;0.95;;;;;;;20.54;34.96;100560.16;16120550;19;129731;-43
2022/12/09 10:07:51;;;;;;;3.85;0.60;;;;;;;20.96;34.93;100563.16;16120245;19;132888;-43
2022/12/09 10:13:27;;;;;;;2.40;0.73;;;;;;;21.25;34.47;100563.56;16120888;19;135603;-40
2022/12/09 10:19:13;;;;;;;4.68;1.20;;;;;;;21.33;34.14;100553.84;16121489;19;129802;-43
2022/12/09 10:24:41;;;;;;;6.32;1.33;;;;;;;21.29;33.82;100544.41;16121465;19;129486;-44
2022/12/09 10:30:08;;;;;;;10.05;1.60;;;;;;;21.17;34.22;100551.00;16123467;19;129304;-40
2022/12/09 10:35:31;;;;;;;3.70;1.10;;;;;;;20.99;34.13;100549.53;16131943;19;129478;-40
2022/12/09 10:43:33;;;;;;;6.38;1.40;;;;;;;20.79;34.41;100547.53;16131449;19;131100;-41
2022/12/09 10:47:03;;;;;;;;;;;;;;;20.56;34.78;100544.03;16129028;19;130299;-40
2022/12/09 10:52:37;;;;;;;2.50;0.88;;;;;;;20.41;34.61;100538.41;16127802;19;129779;-46
2022/12/09 10:58:13;;;;;;;2.53;1.00;;;;;;;20.22;34.87;100530.47;16130173;19;133650;-41
2022/12/09 11:03:48;;;;;;;3.55;1.20;;;;;;;20.04;35.29;100544.78;16124514;19;129504;-40
2022/12/09 11:09:21;;;;;;;2.88;1.15;;;;;;;19.88;35.13;100541.84;16124137;19;129312;-42
2022/12/09 11:14:58;;;;;;;4.55;0.98;;;;;;;19.74;35.67;100548.94;16127134;19;130437;-40
2022/12/09 11:20:22;;;;;;;8.55;1.50;;;;;;;19.57;35.96;100538.78;16123140;19;129616;-41
2022/12/09 11:26:06;;;;;;;2.17;0.93;;;;;;;19.49;35.74;100533.69;16125951;19;129534;-42
2022/12/09 11:31:31;;;;;;;1.90;0.80;;;;;;;19.38;36.20;100527.22;16121260;19;129713;-40
2022/12/09 11:36:57;;;;;;;7.22;1.40;;;;;;;19.29;36.06;100528.78;16123270;19;130494;-41
2022/12/09 11:42:21;;;;;;;6.60;1.20;;;;;;;19.19;36.33;100529.50;16122833;19;134347;-40
2022/12/09 11:47:45;;;;;;;3.33;1.50;;;;;;;19.13;36.45;100530.50;16120219;19;129626;-40
2022/12/09 11:53:28;;;;;;;7.10;1.38;;;;;;;19.05;36.66;100529.03;16121543;19;131080;-43
2022/12/09 11:59:03;;;;;;;6.97;1.23;;;;;;;18.99;36.13;100525.34;16120659;19;129708;-42
2022/12/09 12:04:51;;;;;;;3.08;1.48;;;;;;;18.99;36.59;100519.00;16120971;19;130351;-45
2022/12/09 12:10:39;;;;;;;9.38;2.50;;;;;;;19.06;35.82;100517.69;16120949;19;129415;-40
2022/12/09 12:16:24;;;;;;;7.43;2.30;;;;;;;19.40;35.54;100513.09;16120912;19;129338;-41
2022/12/09 12:21:59;;;;;;;7.30;2.10;;;;;;;19.94;34.90;100517.75;16121218;19;129697;-44
2022/12/09 12:27:24;;;;;;;8.55;2.85;;;;;;;20.45;34.26;100511.72;16119864;19;129711;-41
2022/12/09 12:32:57;;;;;;;13.43;2.47;;;;;;;20.81;33.56;100508.34;16123947;19;129420;-40
2022/12/09 12:39:11;;;;;;;7.38;2.20;;;;;;;21.16;33.20;100510.41;16119990;19;131841;-41
2022/12/09 12:51:02;;;;;;;11.10;1.60;;;;;;;21.39;32.75;100502.69;16117710;19;129438;-40
2022/12/09 12:56:36;;;;;;;6.30;1.40;;;;;;;21.28;33.28;100507.38;16119699;19;131284;-40
2022/12/09 13:02:14;;;;;;;4.30;1.38;;;;;;;21.11;33.14;100504.00;16120325;19;128831;-40
2022/12/09 13:07:47;;;;;;;7.60;1.10;;;;;;;20.90;33.58;100502.00;16119159;19;129869;-40
2022/12/09 13:13:30;;;;;;;6.25;1.13;;;;;;;20.73;33.97;100492.97;16118735;19;129636;-41
2022/12/09 13:18:53;;;;;;;5.05;1.30;;;;;;;20.52;34.09;100490.09;16118114;19;129604;-40
2022/12/09 13:24:33;;;;;;;4.32;1.35;;;;;;;20.34;34.59;100491.41;16126089;19;130548;-41
2022/12/09 13:30:03;;;;;;;2.80;1.17;;;;;;;20.17;34.92;100494.34;16136098;19;130173;-40
2022/12/09 13:35:34;;;;;;;2.70;1.40;;;;;;;20.02;34.73;100497.84;16130643;19;130309;-40
2022/12/09 13:40:56;;;;;;;4.15;1.52;;;;;;;19.87;35.52;100498.53;16133543;19;130016;-40
2022/12/09 13:46:26;;;;;;;5.50;1.60;;;;;;;19.75;35.69;100497.88;16131480;19;129797;-41
2022/12/09 13:51:50;;;;;;;4.47;1.45;;;;;;;19.61;36.01;100494.72;16130513;19;129343;-40
2022/12/09 13:57:34;;;;;;;3.97;1.65;;;;;;;19.49;36.06;100500.41;16129179;19;129795;-40
2022/12/09 14:03:03;;;;;;;2.58;1.35;;;;;;;19.38;36.52;100507.81;16129405;19;129477;-43
2022/12/09 14:08:31;;;;;;;6.60;1.42;;;;;;;19.29;36.46;100501.91;16129148;19;129547;-40
2022/12/09 14:14:21;;;;;;;3.58;1.42;;;;;;;19.25;37.06;100506.28;16130776;19;129874;-39
2022/12/09 14:19:51;;;;;;;5.75;2.03;;;;;;;19.26;36.95;100516.28;16128892;19;130490;-39
2022/12/09 14:25:36;;;;;;;5.10;1.45;;;;;;;19.31;37.21;100513.56;16127829;19;129081;-40
2022/12/09 14:30:59;;;;;;;3.33;1.30;;;;;;;19.33;37.21;100519.66;16128531;19;130079;-40
2022/12/09 14:36:32;;;;;;;15.18;3.03;;;;;;;19.36;37.29;100518.31;16125428;19;130435;-39
2022/12/09 14:41:59;;;;;;;19.97;3.93;;;;;;;19.43;36.70;100512.56;16126837;19;130675;-39
2022/12/09 14:47:27;;;;;;;20.08;3.30;;;;;;;19.57;36.31;100513.81;16125657;19;129381;-39
2022/12/09 14:52:51;;;;;;;15.00;2.58;;;;;;;19.93;35.98;100522.47;16126975;19;129340;-40
2022/12/09 14:58:20;;;;;;;5.40;1.80;;;;;;;20.45;35.65;100533.94;16126090;19;129927;-40
2022/12/09 15:03:53;;;;;;;12.50;1.95;;;;;;;20.89;34.97;100539.25;16125780;19;129315;-42
2022/12/09 15:09:15;;;;;;;11.95;1.70;;;;;;;21.19;34.48;100553.53;16126262;19;129558;-40
2022/12/09 15:14:39;;;;;;;10.25;1.48;;;;;;;21.36;34.47;100542.16;16126747;19;129610;-39
2022/12/09 15:20:03;;;;;;;4.80;1.13;;;;;;;21.43;34.18;100539.13;16124179;19;129519;-40
2022/12/09 15:25:25;;;;;;;4.13;1.30;;;;;;;21.40;34.26;100539.66;16120177;19;129311;-40
2022/12/09 15:30:59;;;;;;;7.32;1.05;;;;;;;21.30;34.30;100543.25;16123336;19;131036;-40
2022/12/09 15:36:26;;;;;;;7.45;1.30;;;;;;;21.13;34.15;100538.78;16121859;19;130244;-40
2022/12/09 15:42:05;;;;;;;4.47;1.23;;;;;;;20.95;34.44;100542.03;16122755;19;129572;-38
2022/12/09 15:47:39;;;;;;;7.35;1.42;;;;;;;20.75;34.84;100538.03;16121497;19;129676;-41
2022/12/09 15:53:48;;;;;;;6.28;1.67;;;;;;;20.56;34.95;100537.63;16123574;19;129601;-44
2022/12/09 15:59:20;;;;;;;8.40;1.77;;;;;;;20.39;35.80;100551.72;16122059;19;129952;-42
2022/12/09 16:04:45;;;;;;;2.80;1.00;;;;;;;20.22;35.76;100540.75;16123435;19;129701;-44
2022/12/09 16:10:13;;;;;;;6.78;1.42;;;;;;;20.07;35.58;100538.69;16122981;19;129549;-42
2022/12/09 16:15:45;;;;;;;3.90;1.10;;;;;;;19.95;35.97;100553.56;16122239;19;129366;-41
2022/12/09 16:21:30;;;;;;;6.57;1.23;;;;;;;19.83;35.89;100555.66;16119531;19;129531;-42
2022/12/09 16:26:53;;;;;;;5.70;1.17;;;;;;;19.72;36.16;100548.34;16119724;19;130259;-42
2022/12/09 16:32:22;;;;;;;3.67;1.38;;;;;;;19.61;36.40;100551.03;16116231;19;129580;-43
2022/12/09 16:38:08;;;;;;;15.20;2.95;;;;;;;19.54;36.59;100558.75;16118440;19;130059;-42
2022/12/09 16:43:30;;;;;;;14.52;3.17;;;;;;;19.52;35.91;100566.47;16120407;19;129152;-41
2022/12/09 16:48:51;;;;;;;9.02;2.58;;;;;;;19.58;36.35;100562.66;16120169;19;129310;-41
2022/12/09 16:54:15;;;;;;;10.80;3.00;;;;;;;19.72;35.72;100570.56;16118162;19;129279;-41
2022/12/09 16:59:42;;;;;;;10.80;3.67;;;;;;;19.82;35.26;100567.88;16120577;19;129621;-42
2022/12/09 17:05:04;;;;;;;9.73;3.10;;;;;;;19.88;35.36;100575.16;16133777;19;129443;-43
2022/12/09 17:10:27;;;;;;;8.57;3.88;;;;;;;19.95;34.80;100575.78;16131676;19;129370;-43
2022/12/09 17:15:50;;;;;;;8.07;3.70;;;;;;;19.97;34.75;100592.19;16132743;19;129459;-41
2022/12/09 17:21:13;;;;;;;8.45;3.53;;;;;;;19.94;34.09;100590.75;16132634;19;130128;-41
2022/12/09 17:26:34;;;;;;;14.63;3.35;;;;;;;19.89;34.64;100592.63;16135586;19;129479;-40
2022/12/09 17:31:56;;;;;;;5.53;2.97;;;;;;;19.88;34.47;100588.22;16132448;19;129394;-45
2022/12/09 17:37:18;;;;;;;10.77;3.40;;;;;;;20.01;34.38;100598.06;16129065;19;129877;-42
2022/12/09 17:42:40;;;;;;;5.80;3.20;;;;;;;20.19;34.27;100603.22;16129696;19;129734;-41
2022/12/09 17:48:02;;;;;;;9.43;2.70;;;;;;;20.43;33.97;100602.88;16129181;19;129492;-42
2022/12/09 17:53:24;;;;;;;7.22;2.67;;;;;;;20.64;34.12;100603.81;16132082;19;130313;-45
2022/12/09 17:58:52;;;;;;;5.28;2.03;;;;;;;20.82;34.00;100604.53;16131618;19;129919;-41
2022/12/09 18:04:14;;;;;;;10.65;3.55;;;;;;;20.93;33.58;100611.81;16119990;19;136271;-40
2022/12/09 18:09:36;;;;;;;9.02;2.72;;;;;;;20.98;33.75;100619.34;16126231;19;129565;-40
2022/12/09 18:14:58;;;;;;;7.18;2.75;;;;;;;21.01;33.91;100627.16;16126614;19;130270;-43
2022/12/09 18:20:19;;;;;;;7.72;3.25;;;;;;;20.98;34.22;100624.91;16128177;19;129690;-41
2022/12/09 18:25:41;;;;;;;9.25;2.90;;;;;;;20.90;34.42;100621.56;16129375;19;129548;-42
2022/12/09 18:31:12;;;;;;;8.02;2.15;;;;;;;20.82;34.25;100622.03;16128428;19;130921;-40
2022/12/09 18:36:34;;;;;;;10.05;2.30;;;;;;;20.75;34.91;100626.97;16128052;19;130893;-40
2022/12/09 18:41:56;;;;;;;7.95;2.25;;;;;;;20.68;34.60;100626.34;16123311;19;129345;-42
2022/12/09 18:47:18;;;;;;;4.47;2.00;;;;;;;20.60;35.21;100633.28;16125059;19;130089;-42
2022/12/09 18:52:40;;;;;;;11.38;2.90;;;;;;;20.48;35.06;100647.34;16125091;19;130591;-42
2022/12/09 18:58:02;;;;;;;14.70;3.30;;;;;;;20.42;35.55;100645.66;16123260;19;130187;-40
2022/12/09 19:03:24;;;;;;;13.98;2.78;;;;;;;20.46;36.19;100655.13;16124693;19;131202;-40
2022/12/09 19:08:47;;;;;;;20.48;2.92;;;;;;;20.56;36.31;100659.91;16124377;19;129272;-41
2022/12/09 19:14:09;;;;;;;16.75;2.95;;;;;;;20.67;36.40;100667.22;16125162;19;129911;-40
2022/12/09 19:19:31;;;;;;;18.27;3.03;;;;;;;20.77;36.07;100669.28;16125931;19;129242;-39
2022/12/09 19:24:53;;;;;;;37.25;4.40;;;;;;;20.79;36.17;100664.31;16123008;19;130094;-39
2022/12/09 19:30:14;;;;;;;27.02;4.53;;;;;;;20.78;36.15;100662.63;16123457;19;129618;-41
2022/12/09 19:35:36;;;;;;;25.02;4.20;;;;;;;20.79;36.25;100666.22;16123088;19;130362;-40
2022/12/09 19:41:01;;;;;;;27.60;4.43;;;;;;;20.74;36.36;100658.66;16120782;19;129174;-39
2022/12/09 19:46:25;;;;;;;35.53;4.35;;;;;;;20.70;36.52;100674.19;16118944;19;129871;-50
2022/12/09 19:51:48;;;;;;;24.58;4.18;;;;;;;20.65;36.83;100674.16;16123459;19;130439;-49
2022/12/09 19:57:09;;;;;;;23.13;4.05;;;;;;;20.57;37.25;100681.88;16126148;19;130481;-42
2022/12/09 20:02:31;;;;;;;20.95;3.60;;;;;;;20.53;37.29;100677.13;16130988;19;130579;-43
2022/12/09 20:07:54;;;;;;;16.83;3.28;;;;;;;20.47;38.03;100676.25;16128532;19;130680;-49
2022/12/09 20:13:16;;;;;;;26.23;3.88;;;;;;;20.42;37.57;100679.00;16125422;19;129754;-45
2022/12/09 20:18:38;;;;;;;23.08;3.92;;;;;;;20.38;37.85;100684.22;16131916;19;129494;-41
2022/12/09 20:24:01;;;;;;;20.75;4.10;;;;;;;20.36;38.10;100685.59;16123970;19;130901;-41
2022/12/09 20:29:23;;;;;;;19.60;3.20;;;;;;;20.34;37.99;100690.56;16122040;19;129904;-42
2022/12/09 20:34:46;;;;;;;16.48;3.45;;;;;;;20.30;38.45;100687.47;16128325;19;129564;-40
2022/12/09 20:40:09;;;;;;;10.43;2.63;;;;;;;20.27;38.84;100688.00;16149585;19;129850;-39
2022/12/09 20:45:31;;;;;;;15.68;2.70;;;;;;;20.23;38.83;100698.00;16148894;19;129484;-40
2022/12/09 20:50:53;;;;;;;12.23;2.60;;;;;;;20.23;38.22;100689.66;16149144;19;129263;-40
2022/12/09 20:56:16;;;;;;;13.07;2.72;;;;;;;20.38;38.23;100694.50;16149986;19;129554;-39
2022/12/09 21:01:38;;;;;;;11.93;2.60;;;;;;;20.57;38.05;100701.34;16151675;19;129556;-41
2022/12/09 21:07:00;;;;;;;13.77;2.13;;;;;;;20.78;37.81;100701.53;16150057;19;131080;-40
2022/12/09 21:12:21;;;;;;;11.57;2.47;;;;;;;20.88;37.49;100709.97;16148943;19;129616;-39
2022/12/09 21:17:47;;;;;;;9.75;2.45;;;;;;;20.94;37.88;100707.19;16139517;19;130215;-39
2022/12/09 21:23:08;;;;;;;;;;;;;;;20.92;37.75;100706.66;16146754;19;129313;-43
2022/12/09 21:28:51;;;;;;;6.25;2.55;;;;;;;20.93;37.49;100711.06;16148612;19;129950;-41
2022/12/09 21:34:13;;;;;;;10.65;2.20;;;;;;;20.86;37.83;100708.56;16143052;19;129418;-40
2022/12/09 21:39:35;;;;;;;11.32;2.53;;;;;;;20.81;37.44;100714.06;16149027;19;129421;-41
2022/12/09 21:44:56;;;;;;;12.77;2.67;;;;;;;20.71;37.58;100720.34;16143253;19;129566;-41
2022/12/09 21:50:18;;;;;;;18.58;3.17;;;;;;;20.65;37.80;100721.41;16128876;19;129636;-42
2022/12/09 21:55:40;;;;;;;12.43;2.80;;;;;;;20.56;38.02;100727.44;16131611;19;130010;-42
2022/12/09 22:01:19;;;;;;;13.30;2.53;;;;;;;20.49;37.96;100724.06;16128932;19;129790;-42
2022/12/09 22:06:45;;;;;;;13.13;2.83;;;;;;;20.36;38.00;100724.50;16128065;19;129924;-42
2022/12/09 22:12:07;;;;;;;25.10;3.67;;;;;;;20.22;37.84;100733.25;16131458;19;129818;-42
2022/12/09 22:17:30;;;;;;;9.88;3.20;;;;;;;20.08;37.64;100735.59;16123965;19;130740;-42
2022/12/09 22:22:52;;;;;;;15.57;3.00;;;;;;;19.96;38.12;100738.47;16126927;19;129066;-42
2022/12/09 22:28:14;;;;;;;8.68;3.13;;;;;;;19.86;37.80;100743.09;16128601;19;130900;-42
2022/12/09 22:33:36;;;;;;;10.63;2.40;;;;;;;19.75;38.29;100736.56;16127119;19;131379;-42
2022/12/09 22:38:58;;;;;;;7.68;2.80;;;;;;;19.65;37.81;100738.13;16126593;19;129683;-42
2022/12/09 22:44:19;;;;;;;4.95;2.33;;;;;;;19.60;38.17;100749.16;16126266;19;132458;-40
2022/12/09 22:49:41;;;;;;;8.23;2.40;;;;;;;19.53;37.80;100729.09;16125947;19;129691;-42
2022/12/09 22:55:04;;;;;;;7.50;2.17;;;;;;;19.48;37.98;100729.00;16125026;19;129422;-41
2022/12/09 23:00:26;;;;;;;6.78;2.20;;;;;;;19.41;37.98;100731.97;16123815;19;129926;-41
2022/12/09 23:05:48;;;;;;;6.47;2.15;;;;;;;19.36;38.09;100740.25;16125877;19;129620;-40
2022/12/09 23:11:12;;;;;;;4.82;2.15;;;;;;;19.31;38.07;100743.78;16124498;19;130978;-40
2022/12/09 23:16:34;;;;;;;8.67;2.60;;;;;;;19.27;37.78;100745.38;16127595;19;129602;-40
2022/12/09 23:21:56;;;;;;;3.72;1.88;;;;;;;19.20;38.05;100741.94;16123469;19;129592;-41
2022/12/09 23:27:18;;;;;;;5.10;2.08;;;;;;;19.16;37.93;100762.94;16124561;19;129333;-41
2022/12/09 23:32:39;;;;;;;5.22;2.28;;;;;;;19.11;37.79;100754.53;16126726;19;129525;-40
2022/12/09 23:38:02;;;;;;;2.92;1.90;;;;;;;19.06;37.73;100766.38;16124763;19;130144;-40
2022/12/09 23:43:23;;;;;;;4.82;1.98;;;;;;;19.02;37.93;100768.81;16123513;19;129649;-40
2022/12/09 23:48:47;;;;;;;2.60;1.80;;;;;;;18.99;37.96;100758.22;16125716;19;129986;-40
2022/12/09 23:54:13;;;;;;;3.83;1.75;;;;;;;18.94;37.80;100766.47;16124130;19;130313;-42
2022/12/09 23:59:35;;;;;;;4.38;1.90;;;;;;;18.90;37.70;100781.94;16123810;19;130479;-40
